Time;durP1;ratioP1;P1;durP2;ratioP2;P2;SDS_P1;SDS_P2;PMS_P1;PMS_P2;Temp;Humidity;BMP_temperature;BMP_pressure;BME280_temperature;BME280_humidity;BME280_pressure;Samples;Min_cycle;Max_cycle;Signal;HPM_P1;HPM_P2
2023/06/16 00:00:11;;;;;;;20.83;11.45;;;;;;;18.67;91.05;94679.09;5032669;28;20079;-78
2023/06/16 00:02:41;;;;;;;19.63;11.77;;;;;;;18.83;91.15;94685.34;5032711;28;20519;-80
2023/06/16 00:05:10;;;;;;;14.40;11.65;;;;;;;18.76;91.08;94664.44;5032425;28;20122;-81
2023/06/16 00:07:36;;;;;;;15.88;11.63;;;;;;;18.90;90.66;94688.25;5031959;28;20049;-80
2023/06/16 00:10:03;;;;;;;16.25;11.38;;;;;;;18.61;90.50;94642.84;5033724;28;20029;-81
2023/06/16 00:12:29;;;;;;;13.55;10.50;;;;;;;18.84;90.30;94681.56;5033865;28;20026;-81
2023/06/16 00:14:54;;;;;;;14.95;11.15;;;;;;;18.64;90.29;94651.00;5032304;28;20079;-80
2023/06/16 00:17:20;;;;;;;14.45;10.80;;;;;;;18.68;90.27;94659.19;5033603;28;20037;-81
2023/06/16 00:19:47;;;;;;;17.15;11.95;;;;;;;18.95;90.46;94696.09;5032057;28;20044;-81
2023/06/16 00:22:12;;;;;;;18.13;12.30;;;;;;;18.85;90.81;94686.56;5031941;28;20033;-80
2023/06/16 00:24:38;;;;;;;12.80;10.52;;;;;;;18.64;91.12;94637.56;5033782;28;20112;-81
2023/06/16 00:27:04;;;;;;;18.02;9.98;;;;;;;18.79;91.14;94654.91;5032827;28;20120;-80
2023/06/16 00:29:29;;;;;;;15.18;9.23;;;;;;;18.81;90.85;94658.81;5031369;28;20032;-80
2023/06/16 00:31:55;;;;;;;13.23;9.48;;;;;;;18.94;90.97;94675.69;5031426;28;20037;-81
2023/06/16 00:34:21;;;;;;;14.23;8.70;;;;;;;18.65;90.55;94624.91;5033277;28;20443;-81
2023/06/16 00:36:46;;;;;;;13.82;9.38;;;;;;;18.93;90.53;94673.34;5032312;28;20163;-81
2023/06/16 00:39:12;;;;;;;11.73;9.15;;;;;;;18.83;90.31;94658.50;5032214;28;20037;-80
2023/06/16 00:41:37;;;;;;;14.90;9.90;;;;;;;18.95;90.69;94671.13;5023972;28;20029;-80
2023/06/16 00:44:03;;;;;;;13.13;9.88;;;;;;;18.89;90.60;94673.25;5012635;28;20044;-81
2023/06/16 00:46:33;;;;;;;15.63;9.73;;;;;;;19.06;90.47;94689.13;5012007;28;20097;-81
2023/06/16 00:48:59;;;;;;;12.63;9.73;;;;;;;18.91;89.98;94660.28;4995796;28;20124;-80
2023/06/16 00:51:26;;;;;;;10.63;9.52;;;;;;;19.07;89.93;94679.94;5013465;28;20038;-81
2023/06/16 00:53:53;;;;;;;12.10;9.45;;;;;;;18.82;90.29;94640.81;5012286;28;20030;-81
2023/06/16 00:56:21;;;;;;;14.85;9.52;;;;;;;18.87;90.02;94637.88;5012360;28;20409;-81
2023/06/16 00:58:51;;;;;;;13.55;9.63;;;;;;;18.99;90.00;94656.69;5012996;28;20096;-81
2023/06/16 01:01:17;;;;;;;14.80;10.48;;;;;;;18.98;90.05;94654.31;5012020;28;20033;-81
2023/06/16 01:03:44;;;;;;;13.73;10.25;;;;;;;19.05;89.87;94670.66;5013835;28;20489;-80
2023/06/16 01:06:34;;;;;;;10.82;9.10;;;;;;;18.79;89.84;94628.81;5011677;28;20428;-81
2023/06/16 01:09:15;;;;;;;13.25;10.05;;;;;;;18.88;89.43;94636.75;5011558;28;20149;-80
2023/06/16 01:11:46;;;;;;;12.88;10.18;;;;;;;19.04;89.23;94661.81;5011737;28;20037;-80
2023/06/16 01:14:28;;;;;;;12.43;9.55;;;;;;;18.97;89.18;94648.16;5012053;28;20034;-80
2023/06/16 01:16:57;;;;;;;14.30;9.35;;;;;;;18.71;89.38;94612.81;5014714;28;20033;-81
2023/06/16 01:19:37;;;;;;;16.05;9.82;;;;;;;18.89;89.37;94641.78;5032496;28;20484;-80
2023/06/16 01:22:20;;;;;;;17.52;10.43;;;;;;;18.84;88.72;94639.31;5032906;28;20041;-80
2023/06/16 01:24:47;;;;;;;16.55;10.35;;;;;;;18.93;88.68;94644.56;5031621;28;20075;-80
2023/06/16 01:27:17;;;;;;;15.73;11.20;;;;;;;18.94;88.87;94640.00;5032388;28;20095;-80
2023/06/16 01:29:46;;;;;;;15.10;10.02;;;;;;;18.83;89.39;94631.63;4999561;28;20045;-80
2023/06/16 01:32:12;;;;;;;13.70;11.05;;;;;;;18.74;89.35;94621.00;5030623;28;20037;-80
2023/06/16 01:34:39;;;;;;;13.60;10.20;;;;;;;18.88;88.91;94650.19;5031246;28;20503;-81
2023/06/16 01:37:06;;;;;;;15.73;10.40;;;;;;;18.73;88.89;94618.66;5031407;28;20087;-80
2023/06/16 01:39:32;;;;;;;11.60;9.73;;;;;;;18.57;89.07;94590.91;5034228;28;20095;-80
2023/06/16 01:41:59;;;;;;;14.27;11.00;;;;;;;18.54;89.34;94589.66;5037091;28;20037;-80
2023/06/16 01:44:30;;;;;;;14.43;10.25;;;;;;;18.60;89.44;94601.78;5035182;28;20044;-80
2023/06/16 01:46:56;;;;;;;17.02;10.57;;;;;;;18.89;89.47;94644.50;5035399;28;20037;-80
2023/06/16 01:49:23;;;;;;;13.80;10.43;;;;;;;18.80;89.41;94626.91;5034785;28;20045;-80
2023/06/16 01:51:48;;;;;;;20.92;10.65;;;;;;;18.68;89.04;94608.94;5035816;28;20043;-80
2023/06/16 01:54:14;;;;;;;11.90;10.50;;;;;;;18.84;89.02;94639.31;5036730;28;20061;-77
2023/06/16 01:56:40;;;;;;;11.48;9.32;;;;;;;18.51;89.16;94591.13;5034691;28;20036;-77
2023/06/16 01:59:05;;;;;;;12.85;9.77;;;;;;;18.86;89.25;94636.31;5036043;28;20040;-77
2023/06/16 02:01:42;;;;;;;15.38;10.27;;;;;;;18.83;88.79;94635.09;5034667;28;20101;-78
2023/06/16 02:04:17;;;;;;;16.50;10.38;;;;;;;18.57;88.89;94599.75;5036404;28;20076;-77
2023/06/16 02:06:49;;;;;;;12.77;10.43;;;;;;;18.60;88.71;94598.31;5039723;28;20057;-77
2023/06/16 02:09:16;;;;;;;11.77;10.18;;;;;;;18.50;88.43;94586.09;5038146;28;20051;-77
2023/06/16 02:11:43;;;;;;;22.60;10.68;;;;;;;18.82;88.95;94625.47;5037796;28;20099;-78
2023/06/16 02:14:10;;;;;;;16.10;11.23;;;;;;;18.59;89.35;94596.72;5055438;28;20033;-78
2023/06/16 02:16:42;;;;;;;12.35;10.48;;;;;;;18.28;89.00;94548.97;5037641;28;20040;-78
2023/06/16 02:19:09;;;;;;;14.50;10.68;;;;;;;18.85;89.06;94642.78;5037171;28;20508;-78
2023/06/16 02:21:36;;;;;;;20.52;11.43;;;;;;;18.56;89.15;94592.00;5055817;28;20037;-78
2023/06/16 02:24:02;;;;;;;13.18;11.00;;;;;;;18.67;89.42;94610.03;5038147;28;20036;-78
2023/06/16 02:26:27;;;;;;;16.63;10.45;;;;;;;18.68;89.59;94603.56;5038132;28;20119;-78
2023/06/16 02:28:53;;;;;;;21.23;11.85;;;;;;;18.70;89.80;94603.97;5037882;28;20037;-78
2023/06/16 02:31:18;;;;;;;17.65;10.15;;;;;;;18.73;89.66;94613.28;5038237;28;20119;-78
2023/06/16 02:33:44;;;;;;;16.58;9.82;;;;;;;18.42;89.52;94560.91;5037983;28;20033;-78
2023/06/16 02:36:10;;;;;;;15.85;9.52;;;;;;;18.56;89.39;94598.19;5037956;28;20039;-78
2023/06/16 02:38:36;;;;;;;12.27;8.98;;;;;;;18.63;88.76;94600.31;5055763;28;20112;-78
2023/06/16 02:41:01;;;;;;;13.25;9.18;;;;;;;18.77;89.23;94625.69;5038372;28;20507;-78
2023/06/16 02:43:27;;;;;;;18.40;10.27;;;;;;;18.19;88.97;94530.28;5055702;28;20115;-78
2023/06/16 02:45:53;;;;;;;14.15;9.77;;;;;;;18.42;88.66;94568.97;5055639;28;20029;-78
2023/06/16 02:48:18;;;;;;;12.25;9.98;;;;;;;18.52;88.64;94587.31;5055381;28;20033;-78
2023/06/16 02:50:45;;;;;;;12.48;9.55;;;;;;;18.46;88.62;94588.66;5036720;28;20483;-78
2023/06/16 02:53:10;;;;;;;11.00;9.15;;;;;;;18.66;88.70;94624.59;5037061;28;20041;-78
2023/06/16 02:55:36;;;;;;;14.00;10.27;;;;;;;18.75;89.34;94630.63;5036775;28;20424;-78
2023/06/16 02:58:01;;;;;;;13.35;9.27;;;;;;;18.66;89.41;94619.22;5037665;28;20144;-78
2023/06/16 03:00:27;;;;;;;11.45;9.02;;;;;;;18.76;89.35;94634.09;5055002;28;20509;-78
2023/06/16 03:02:52;;;;;;;12.35;9.60;;;;;;;18.59;89.22;94607.47;5054783;28;20063;-78
2023/06/16 03:05:18;;;;;;;14.02;10.27;;;;;;;18.66;89.73;94611.16;5055185;28;20067;-78
2023/06/16 03:07:44;;;;;;;14.25;9.70;;;;;;;18.63;89.55;94611.03;5036235;28;20060;-78
2023/06/16 03:10:11;;;;;;;15.80;10.65;;;;;;;18.74;89.67;94630.97;5019735;28;20048;-78
2023/06/16 03:12:36;;;;;;;14.85;10.32;;;;;;;18.27;89.61;94556.22;5035785;28;20028;-78
2023/06/16 03:15:02;;;;;;;11.63;9.75;;;;;;;18.67;89.85;94612.72;5054228;28;20357;-78
2023/06/16 03:17:28;;;;;;;15.77;9.13;;;;;;;18.68;89.79;94621.56;5036142;28;20352;-78
2023/06/16 03:19:53;;;;;;;14.23;9.70;;;;;;;18.77;90.23;94627.59;5053852;28;20067;-78
2023/06/16 03:22:19;;;;;;;14.93;9.65;;;;;;;18.72;90.30;94609.03;5053858;28;20155;-78
2023/06/16 03:24:46;;;;;;;16.25;10.48;;;;;;;18.83;90.25;94635.09;5035968;28;20025;-78
2023/06/16 03:27:12;;;;;;;15.75;10.52;;;;;;;18.70;90.20;94609.34;5034988;28;20094;-78
2023/06/16 03:29:38;;;;;;;15.60;10.52;;;;;;;18.67;90.26;94601.19;5034989;28;20415;-78
2023/06/16 03:32:07;;;;;;;15.90;10.30;;;;;;;18.57;90.42;94582.84;5053770;28;20036;-78
2023/06/16 03:34:32;;;;;;;18.35;11.10;;;;;;;18.41;90.39;94551.28;5035874;28;20812;-78
2023/06/16 03:36:58;;;;;;;19.90;10.88;;;;;;;18.84;90.12;94620.53;5054011;28;20127;-78
2023/06/16 03:39:24;;;;;;;17.77;11.18;;;;;;;18.71;90.50;94597.50;5053709;28;20510;-78
2023/06/16 03:41:50;;;;;;;15.55;10.98;;;;;;;18.51;90.43;94558.13;5035327;28;20550;-79
2023/06/16 03:44:16;;;;;;;16.67;11.02;;;;;;;18.58;90.44;94565.63;5035181;28;20090;-78
2023/06/16 03:46:41;;;;;;;16.88;11.30;;;;;;;18.93;90.14;94617.72;5053288;28;20415;-78
2023/06/16 03:49:10;;;;;;;16.45;10.65;;;;;;;18.82;90.07;94597.81;5035166;28;20424;-78
2023/06/16 03:51:37;;;;;;;16.42;10.80;;;;;;;18.58;90.15;94553.00;5035424;28;20309;-78
2023/06/16 03:54:03;;;;;;;25.58;11.75;;;;;;;18.79;90.17;94585.06;5034910;28;20118;-78
2023/06/16 03:56:28;;;;;;;17.48;11.15;;;;;;;18.70;90.49;94562.91;5052770;28;20037;-78
2023/06/16 03:58:55;;;;;;;21.55;12.80;;;;;;;18.72;90.38;94552.63;5070354;28;20055;-77
2023/06/16 04:01:22;;;;;;;20.38;13.32;;;;;;;18.72;90.47;94548.03;5072148;28;20127;-78
2023/06/16 04:03:51;;;;;;;22.92;14.13;;;;;;;19.04;90.45;94596.53;5073547;28;20077;-77
2023/06/16 04:06:17;;;;;;;21.17;14.95;;;;;;;18.64;90.46;94534.72;5054700;28;20103;-78
2023/06/16 04:09:15;;;;;;;24.70;16.15;;;;;;;18.86;90.03;94577.19;5151990;27;20115;-78
2023/06/16 04:11:42;;;;;;;30.85;15.88;;;;;;;18.88;90.27;94578.44;5133166;27;20118;-78
2023/06/16 04:14:09;;;;;;;25.35;16.73;;;;;;;18.29;90.79;94489.59;5150333;27;20031;-77
2023/06/16 04:16:34;;;;;;;27.77;17.88;;;;;;;18.83;90.29;94564.47;5152059;27;20504;-77
2023/06/16 04:19:02;;;;;;;28.95;18.00;;;;;;;19.11;90.28;94594.81;5150439;27;20137;-77
2023/06/16 04:21:27;;;;;;;24.77;16.67;;;;;;;19.08;90.35;94582.06;5150094;27;20085;-78
2023/06/16 04:23:53;;;;;;;21.95;15.60;;;;;;;19.01;90.33;94576.50;5147028;27;20647;-77
2023/06/16 04:26:22;;;;;;;19.27;15.05;;;;;;;19.23;90.32;94594.00;5126862;27;20096;-77
2023/06/16 04:28:53;;;;;;;22.77;15.05;;;;;;;19.26;90.14;94596.78;5130308;28;20110;-77
2023/06/16 04:31:21;;;;;;;19.75;14.75;;;;;;;18.80;89.52;94532.91;5132931;27;20027;-78
2023/06/16 04:33:46;;;;;;;20.50;13.48;;;;;;;18.85;89.73;94533.44;5151738;27;20158;-78
2023/06/16 04:36:12;;;;;;;23.63;13.00;;;;;;;19.22;89.52;94587.84;5132927;27;20067;-78
2023/06/16 04:38:38;;;;;;;20.63;13.88;;;;;;;19.15;89.66;94578.78;5132693;27;20027;-78
2023/06/16 04:41:04;;;;;;;25.40;13.07;;;;;;;18.91;89.52;94538.59;5132365;27;20042;-78
2023/06/16 04:43:29;;;;;;;19.92;13.40;;;;;;;19.37;89.54;94607.84;5132403;27;20035;-77
2023/06/16 04:45:55;;;;;;;19.88;12.50;;;;;;;19.24;89.40;94577.53;5151211;27;20173;-78
2023/06/16 04:48:21;;;;;;;21.67;11.95;;;;;;;19.42;89.23;94609.50;5140564;27;20050;-77
2023/06/16 04:50:46;;;;;;;20.40;13.60;;;;;;;19.24;88.99;94574.84;5130049;28;20066;-78
2023/06/16 04:53:12;;;;;;;16.98;12.27;;;;;;;18.92;88.86;94526.72;5123354;27;20043;-78
2023/06/16 04:55:37;;;;;;;19.63;14.32;;;;;;;19.24;88.89;94574.84;5133730;27;20061;-77
2023/06/16 04:58:03;;;;;;;20.27;12.38;;;;;;;19.28;88.70;94575.72;5135113;27;20039;-77
2023/06/16 05:00:30;;;;;;;21.10;13.18;;;;;;;19.21;88.38;94574.75;5110959;27;20027;-78
2023/06/16 05:02:56;;;;;;;19.17;14.10;;;;;;;19.13;88.30;94571.09;5140347;27;20059;-78
2023/06/16 05:05:22;;;;;;;19.08;12.93;;;;;;;19.07;88.13;94559.00;5137173;27;20063;-78
2023/06/16 05:07:47;;;;;;;16.75;12.98;;;;;;;19.35;88.24;94606.63;5141160;27;20491;-78
2023/06/16 05:10:13;;;;;;;17.58;13.90;;;;;;;19.23;87.94;94583.25;5154431;27;20165;-78
2023/06/16 05:12:38;;;;;;;20.55;14.07;;;;;;;19.34;87.98;94605.06;5141003;27;20110;-77
2023/06/16 05:15:05;;;;;;;24.38;14.07;;;;;;;19.36;88.13;94600.13;5131904;27;20091;-78
2023/06/16 05:17:30;;;;;;;21.98;14.70;;;;;;;19.26;88.28;94588.72;5148715;27;20249;-78
2023/06/16 05:19:57;;;;;;;22.60;14.77;;;;;;;19.37;88.34;94605.16;5119227;27;20086;-78
2023/06/16 05:22:23;;;;;;;23.58;14.60;;;;;;;19.31;88.45;94585.00;5116427;27;20037;-78
2023/06/16 05:24:57;;;;;;;21.05;13.35;;;;;;;19.23;88.57;94583.25;5116728;27;20045;-78
2023/06/16 05:27:26;;;;;;;20.92;13.30;;;;;;;19.37;88.69;94594.41;5134884;27;20047;-78
2023/06/16 05:29:52;;;;;;;19.45;14.10;;;;;;;19.51;88.39;94607.47;5134539;27;20030;-78
2023/06/16 05:32:19;;;;;;;19.40;14.65;;;;;;;19.18;88.62;94548.56;5115719;27;20054;-78
2023/06/16 05:34:55;;;;;;;20.08;14.73;;;;;;;19.45;88.32;94581.94;5134364;27;20520;-77
2023/06/16 05:37:21;;;;;;;14.52;12.77;;;;;;;19.63;88.34;94602.81;5134508;27;20049;-77
2023/06/16 05:39:47;;;;;;;14.77;11.82;;;;;;;19.60;88.21;94591.97;5116437;27;20331;-79
2023/06/16 05:42:14;;;;;;;16.13;14.13;;;;;;;19.68;88.36;94603.72;5117447;27;20433;-78
2023/06/16 05:44:44;;;;;;;14.65;12.93;;;;;;;19.74;88.40;94600.41;5116915;27;20035;-77
2023/06/16 05:47:09;;;;;;;17.52;11.95;;;;;;;19.56;87.97;94566.88;5118215;27;20447;-78
2023/06/16 05:49:35;;;;;;;13.75;12.32;;;;;;;19.60;87.98;94576.63;5136372;27;20067;-78
2023/06/16 05:52:02;;;;;;;16.98;12.23;;;;;;;19.81;88.05;94602.50;5117552;27;20039;-78
2023/06/16 05:54:28;;;;;;;16.35;12.25;;;;;;;19.80;87.97;94598.25;5117683;27;20481;-77
2023/06/16 05:56:56;;;;;;;16.35;11.88;;;;;;;19.15;88.48;94506.22;5118544;27;20126;-79
2023/06/16 05:59:21;;;;;;;16.05;12.73;;;;;;;19.61;88.79;94558.56;5117427;27;20043;-79
2023/06/16 06:01:49;;;;;;;16.85;11.77;;;;;;;19.72;88.79;94562.31;5117928;27;20046;-78
2023/06/16 06:04:15;;;;;;;13.95;11.07;;;;;;;20.05;89.21;94610.44;5117037;27;20027;-78
2023/06/16 06:06:40;;;;;;;17.70;11.48;;;;;;;20.11;88.92;94606.34;5135837;27;20143;-78
2023/06/16 06:09:06;;;;;;;17.13;10.75;;;;;;;19.90;88.35;94568.16;5135494;27;20483;-78
2023/06/16 06:11:31;;;;;;;14.88;10.90;;;;;;;20.29;88.58;94607.56;5135099;27;20035;-78
2023/06/16 06:13:57;;;;;;;12.70;10.30;;;;;;;20.37;88.98;94612.00;5117012;27;20031;-78
2023/06/16 06:16:23;;;;;;;14.32;10.98;;;;;;;20.45;88.04;94601.41;5117178;27;20031;-78
2023/06/16 06:18:49;;;;;;;13.70;10.48;;;;;;;20.41;86.85;94601.34;5116681;27;20088;-78
2023/06/16 06:21:15;;;;;;;14.30;9.45;;;;;;;20.60;86.90;94620.25;5135531;27;20456;-78
2023/06/16 06:23:41;;;;;;;10.73;9.07;;;;;;;20.34;86.28;94560.78;5134587;27;20067;-78
2023/06/16 06:26:06;;;;;;;11.55;9.20;;;;;;;20.43;84.50;94572.16;5116677;27;20085;-78
2023/06/16 06:28:32;;;;;;;13.98;9.18;;;;;;;20.68;84.10;94594.25;5135320;27;20043;-78
2023/06/16 06:30:57;;;;;;;12.52;9.40;;;;;;;20.67;84.01;94584.63;5134531;27;20035;-78
2023/06/16 06:33:22;;;;;;;18.15;9.55;;;;;;;20.59;83.79;94578.28;5134116;27;20084;-77
2023/06/16 06:35:48;;;;;;;12.15;9.52;;;;;;;20.85;83.91;94611.94;5116522;27;20037;-78
2023/06/16 06:38:14;;;;;;;17.02;9.18;;;;;;;20.95;84.30;94596.00;5116977;27;20031;-78
2023/06/16 06:40:40;;;;;;;12.38;9.80;;;;;;;21.14;83.82;94603.31;5116851;27;20035;-78
2023/06/16 06:43:05;;;;;;;12.52;9.35;;;;;;;20.97;84.06;94582.97;5116134;27;20039;-78
2023/06/16 06:45:30;;;;;;;15.27;10.25;;;;;;;21.06;83.50;94575.44;5134586;27;20039;-78
2023/06/16 06:47:56;;;;;;;11.20;9.65;;;;;;;21.06;82.84;94588.91;5134405;27;20552;-78
2023/06/16 06:50:22;;;;;;;15.98;9.05;;;;;;;21.31;83.31;94591.38;5133664;27;20039;-78
2023/06/16 06:52:47;;;;;;;12.73;9.82;;;;;;;21.50;83.00;94597.56;5134537;27;20039;-78
2023/06/16 06:55:13;;;;;;;13.00;9.90;;;;;;;21.46;82.98;94580.50;5116203;27;20098;-78
2023/06/16 06:57:40;;;;;;;12.88;9.05;;;;;;;21.47;81.63;94584.00;5116813;27;20021;-78
2023/06/16 07:00:07;;;;;;;14.80;9.98;;;;;;;21.15;81.99;94540.97;5093131;27;20038;-78
2023/06/16 07:02:33;;;;;;;15.13;10.55;;;;;;;21.49;80.62;94595.22;5126782;27;20596;-78
2023/06/16 07:04:58;;;;;;;14.32;10.38;;;;;;;21.61;79.96;94586.94;5117365;27;20122;-78
2023/06/16 07:07:24;;;;;;;20.08;11.02;;;;;;;21.60;79.05;94571.13;5093010;28;20047;-78
2023/06/16 07:09:49;;;;;;;17.08;10.95;;;;;;;21.60;79.79;94571.13;5104743;27;20031;-79
2023/06/16 07:12:16;;;;;;;14.73;11.38;;;;;;;21.78;79.79;94599.22;5102354;27;20039;-78
2023/06/16 07:14:41;;;;;;;18.02;12.45;;;;;;;21.65;78.67;94595.13;5101723;28;20035;-79
2023/06/16 07:17:07;;;;;;;19.92;13.45;;;;;;;21.61;78.59;94591.56;5122435;27;20045;-79
2023/06/16 07:19:32;;;;;;;29.98;14.55;;;;;;;21.64;78.30;94596.25;5119814;27;20431;-78
2023/06/16 07:21:58;;;;;;;19.30;15.05;;;;;;;21.43;79.08;94562.34;5115627;27;20039;-78
2023/06/16 07:24:23;;;;;;;27.98;15.70;;;;;;;21.66;79.43;94596.69;5117907;27;20027;-78
2023/06/16 07:26:49;;;;;;;24.50;16.70;;;;;;;21.75;79.57;94610.72;5093619;28;20063;-79
2023/06/16 07:29:14;;;;;;;19.65;16.00;;;;;;;21.49;77.71;94582.50;5118735;27;20043;-79
2023/06/16 07:31:40;;;;;;;24.63;16.13;;;;;;;21.41;78.30;94553.03;5131568;27;20546;-79
2023/06/16 07:34:05;;;;;;;20.73;16.27;;;;;;;21.85;76.67;94602.81;5101623;27;20480;-78
2023/06/16 07:36:32;;;;;;;21.13;14.68;;;;;;;21.52;76.40;94546.69;5102138;27;20038;-78
2023/06/16 07:38:57;;;;;;;32.90;16.45;;;;;;;22.04;76.15;94604.75;5112504;27;20481;-78
2023/06/16 07:41:23;;;;;;;19.58;15.25;;;;;;;22.04;74.82;94609.34;5106771;28;20050;-78
2023/06/16 07:43:48;;;;;;;21.17;15.00;;;;;;;22.06;75.81;94613.25;5094642;28;20039;-78
2023/06/16 07:46:14;;;;;;;23.45;16.30;;;;;;;22.18;75.85;94618.47;5110642;27;20031;-78
2023/06/16 07:48:40;;;;;;;19.30;14.48;;;;;;;21.85;75.99;94581.22;5116366;27;20099;-78
2023/06/16 07:51:06;;;;;;;21.20;15.80;;;;;;;21.86;75.84;94600.91;5115544;27;20031;-79
2023/06/16 07:53:31;;;;;;;19.52;15.02;;;;;;;22.05;73.63;94589.31;5116568;27;20141;-79
2023/06/16 07:55:57;;;;;;;22.23;16.13;;;;;;;22.13;74.64;94577.47;5126905;27;20447;-77
2023/06/16 07:58:23;;;;;;;25.35;16.70;;;;;;;22.42;74.95;94611.16;5114513;27;20031;-78
2023/06/16 08:00:51;;;;;;;24.17;15.48;;;;;;;22.29;72.84;94581.59;5123630;27;20038;-78
2023/06/16 08:03:18;;;;;;;22.55;16.73;;;;;;;22.58;73.89;94593.63;5133861;27;20046;-77
2023/06/16 08:05:44;;;;;;;27.23;17.80;;;;;;;22.58;73.32;94595.59;5124322;27;20085;-79
2023/06/16 08:08:09;;;;;;;19.00;16.40;;;;;;;22.76;72.66;94595.84;5128356;28;20047;-78
2023/06/16 08:10:35;;;;;;;23.88;17.67;;;;;;;22.77;70.66;94602.81;5114693;28;20038;-79
2023/06/16 08:13:00;;;;;;;19.58;17.27;;;;;;;22.78;72.36;94572.72;5123509;28;20027;-78
2023/06/16 08:15:26;;;;;;;21.30;16.25;;;;;;;22.79;71.11;94570.81;5114475;28;20506;-79
2023/06/16 08:17:51;;;;;;;22.98;15.95;;;;;;;22.93;69.58;94598.03;5111918;28;20035;-79
2023/06/16 08:20:17;;;;;;;19.83;15.88;;;;;;;23.05;69.18;94625.63;5100532;28;20103;-78
2023/06/16 08:22:42;;;;;;;20.02;16.20;;;;;;;23.08;69.54;94616.00;5099107;28;20037;-79
2023/06/16 08:25:08;;;;;;;21.08;16.23;;;;;;;22.98;68.40;94598.50;5131946;28;20032;-78
2023/06/16 08:27:34;;;;;;;25.85;17.20;;;;;;;22.92;68.46;94599.97;5106483;28;20030;-79
2023/06/16 08:29:59;;;;;;;25.23;17.73;;;;;;;23.08;69.05;94616.78;5109313;28;20096;-79
2023/06/16 08:32:25;;;;;;;22.08;17.17;;;;;;;22.78;69.07;94571.94;5118906;28;20146;-79
2023/06/16 08:34:50;;;;;;;25.20;18.05;;;;;;;22.74;68.32;94563.78;5132636;28;20042;-78
2023/06/16 08:37:16;;;;;;;26.80;17.73;;;;;;;23.01;68.54;94618.63;5126322;27;20027;-78
2023/06/16 08:39:43;;;;;;;18.25;15.75;;;;;;;22.79;68.00;94579.69;5130357;27;20038;-78
2023/06/16 08:42:09;;;;;;;25.23;15.38;;;;;;;22.94;68.79;94603.09;5116143;28;20050;-79
2023/06/16 08:44:35;;;;;;;19.63;15.18;;;;;;;22.92;68.61;94597.25;5110108;28;20545;-79
2023/06/16 08:47:03;;;;;;;18.83;15.65;;;;;;;22.69;68.59;94545.94;5124906;28;20110;-79
2023/06/16 08:49:28;;;;;;;18.40;14.55;;;;;;;23.26;68.54;94602.72;5128068;28;20031;-80
2023/06/16 08:51:56;;;;;;;22.80;14.68;;;;;;;23.40;66.55;94619.91;5109190;28;20141;-79
2023/06/16 08:54:25;;;;;;;24.08;14.88;;;;;;;23.64;65.98;94626.81;5102866;27;20068;-79
2023/06/16 08:56:51;;;;;;;21.98;16.88;;;;;;;23.66;66.15;94610.16;5125141;27;20046;-79
2023/06/16 08:59:19;;;;;;;19.77;15.93;;;;;;;23.45;65.84;94610.69;5102851;27;20034;-79
2023/06/16 09:01:46;;;;;;;22.33;15.40;;;;;;;23.84;65.03;94617.34;5125185;27;20059;-79
2023/06/16 09:04:15;;;;;;;19.23;16.50;;;;;;;23.29;63.86;94604.69;5082405;27;20461;-79
2023/06/16 09:06:48;;;;;;;24.27;16.45;;;;;;;23.68;65.10;94621.41;5120890;27;20039;-79
2023/06/16 09:09:16;;;;;;;18.02;14.75;;;;;;;23.87;64.26;94618.56;5102555;27;20582;-79
2023/06/16 09:11:41;;;;;;;18.17;14.95;;;;;;;23.45;64.64;94572.81;5109358;27;20417;-79
2023/06/16 09:14:14;;;;;;;22.80;14.63;;;;;;;23.42;65.54;94581.66;5117874;27;20035;-79
2023/06/16 09:16:40;;;;;;;16.05;14.38;;;;;;;23.77;65.00;94605.66;5115039;27;20038;-79
2023/06/16 09:19:08;;;;;;;22.95;15.07;;;;;;;23.90;64.71;94620.50;5107469;27;20050;-80
2023/06/16 09:21:34;;;;;;;18.17;15.40;;;;;;;23.96;63.61;94619.00;5116602;27;20124;-79
2023/06/16 09:24:00;;;;;;;15.57;12.68;;;;;;;23.94;63.10;94617.84;5120469;27;20026;-79
2023/06/16 09:26:32;;;;;;;17.80;13.25;;;;;;;23.88;62.79;94587.59;5098018;28;20123;-79
2023/06/16 09:28:57;;;;;;;16.35;12.77;;;;;;;23.58;63.07;94551.69;5102056;27;20027;-80
2023/06/16 09:31:27;;;;;;;18.10;13.85;;;;;;;24.00;62.74;94610.94;5109307;27;20026;-80
2023/06/16 09:33:52;;;;;;;18.27;14.07;;;;;;;23.89;63.37;94612.75;5106061;27;20042;-79
2023/06/16 09:36:29;;;;;;;18.55;13.73;;;;;;;23.75;62.99;94573.53;5110710;27;20031;-79
2023/06/16 09:38:55;;;;;;;18.45;13.63;;;;;;;23.87;63.12;94588.75;5104739;27;20027;-79
2023/06/16 09:41:20;;;;;;;14.93;12.55;;;;;;;24.14;62.12;94619.19;5122706;27;20023;-79
2023/06/16 09:43:46;;;;;;;17.73;13.20;;;;;;;24.05;61.71;94597.03;5131949;27;20027;-80
2023/06/16 09:46:14;;;;;;;16.38;13.27;;;;;;;23.98;61.75;94597.75;5129343;27;20084;-79
2023/06/16 09:48:50;;;;;;;16.30;12.60;;;;;;;24.04;62.56;94612.50;5109800;27;20069;-80
2023/06/16 09:51:17;;;;;;;19.23;13.60;;;;;;;23.84;63.48;94595.69;5106496;28;20454;-79
2023/06/16 09:53:45;;;;;;;16.02;14.10;;;;;;;23.47;61.78;94544.22;5130378;27;20039;-80
2023/06/16 09:56:13;;;;;;;29.35;15.60;;;;;;;23.40;63.88;94552.28;5100644;27;20031;-79
2023/06/16 09:58:38;;;;;;;16.02;13.48;;;;;;;23.51;63.46;94543.50;5101706;27;20019;-80
2023/06/16 10:01:05;;;;;;;16.65;12.88;;;;;;;23.81;61.78;94599.13;5109192;27;20026;-78
2023/06/16 10:03:32;;;;;;;18.35;13.70;;;;;;;23.83;62.27;94596.84;5094077;27;20571;-79
2023/06/16 10:06:01;;;;;;;15.70;12.50;;;;;;;23.82;62.01;94595.28;5107229;27;20491;-79
2023/06/16 10:08:27;;;;;;;17.90;12.27;;;;;;;23.94;61.45;94596.97;5119583;27;20051;-80
2023/06/16 10:10:53;;;;;;;15.57;11.55;;;;;;;23.78;61.26;94556.56;5126747;27;20581;-79
2023/06/16 10:13:21;;;;;;;13.57;11.15;;;;;;;23.86;60.52;94554.72;5119856;27;20031;-81
2023/06/16 10:15:49;;;;;;;12.73;11.27;;;;;;;24.19;59.93;94597.94;5127884;27;20031;-80
2023/06/16 10:18:16;;;;;;;13.02;10.45;;;;;;;24.22;60.25;94588.34;5109571;27;20038;-79
2023/06/16 10:20:44;;;;;;;14.32;10.82;;;;;;;24.43;58.69;94574.94;5149005;27;20031;-79
2023/06/16 10:23:10;;;;;;;16.40;11.90;;;;;;;24.87;58.35;94583.00;5114679;27;20050;-80
2023/06/16 10:25:40;;;;;;;17.40;11.90;;;;;;;25.04;58.13;94553.66;5116295;27;20126;-80
2023/06/16 10:28:10;;;;;;;14.98;11.45;;;;;;;25.57;56.84;94553.88;5130739;27;20565;-80
2023/06/16 10:30:38;;;;;;;19.42;11.05;;;;;;;26.00;54.94;94571.88;5128290;27;20050;-80
2023/06/16 10:33:25;;;;;;;13.82;10.32;;;;;;;26.24;53.15;94545.88;5115274;27;20057;-80
2023/06/16 10:35:53;;;;;;;16.08;11.52;;;;;;;26.38;53.35;94537.75;5132910;27;20719;-80
2023/06/16 10:38:24;;;;;;;15.13;10.57;;;;;;;26.53;51.66;94546.66;5125065;27;20117;-80
2023/06/16 10:40:54;;;;;;;15.55;11.38;;;;;;;26.44;50.58;94529.97;5133275;27;20031;-80
2023/06/16 10:43:25;;;;;;;14.80;10.50;;;;;;;26.43;50.92;94517.53;5133836;27;20037;-79
2023/06/16 10:45:50;;;;;;;17.67;11.10;;;;;;;26.60;51.87;94545.88;5115527;27;20039;-80
2023/06/16 10:48:16;;;;;;;13.50;10.93;;;;;;;26.61;52.90;94556.38;5133973;27;20307;-79
2023/06/16 10:50:42;;;;;;;13.30;11.02;;;;;;;26.27;52.97;94514.44;5114194;27;20027;-80
2023/06/16 10:53:13;;;;;;;15.85;10.30;;;;;;;26.31;53.23;94526.09;5124387;27;20130;-80
2023/06/16 10:55:42;;;;;;;15.75;11.80;;;;;;;26.24;52.98;94517.94;5115203;27;20065;-80
2023/06/16 10:58:14;;;;;;;11.88;10.35;;;;;;;26.45;52.14;94543.19;5133132;27;20501;-80
2023/06/16 11:00:44;;;;;;;10.73;9.60;;;;;;;26.18;50.07;94508.59;5132988;27;20034;-79
2023/06/16 11:03:10;;;;;;;12.77;9.43;;;;;;;26.36;50.11;94507.44;5133182;27;20405;-79
2023/06/16 11:05:44;;;;;;;18.83;9.40;;;;;;;26.60;51.43;94524.13;5115584;27;20031;-79
2023/06/16 11:08:10;;;;;;;14.80;8.88;;;;;;;26.96;51.61;94527.56;5133934;27;20078;-80
2023/06/16 11:10:52;;;;;;;12.35;9.70;;;;;;;26.91;50.12;94495.31;5116467;27;20254;-79
2023/06/16 11:13:32;;;;;;;10.93;8.70;;;;;;;26.95;50.00;94524.06;5119185;27;20058;-79
2023/06/16 11:16:00;;;;;;;12.57;8.23;;;;;;;26.42;48.07;94521.41;5135578;27;20027;-78
2023/06/16 11:18:27;;;;;;;10.10;8.23;;;;;;;26.74;49.20;94521.38;5133982;27;20508;-78